createdAt,value
2017-09-04T00:02:16.944Z,1008
2017-09-04T00:12:32.646Z,1007.9
2017-09-04T00:22:47.486Z,1007.8
2017-09-04T00:33:01.325Z,1007.8
2017-09-04T00:43:16.564Z,1007.9
2017-09-04T00:53:30.474Z,1007.9
2017-09-04T01:03:44.782Z,1007.9
2017-09-04T01:13:59.708Z,1007.8
2017-09-04T01:24:13.954Z,1007.8
2017-09-04T01:34:29.561Z,1007.8
2017-09-04T01:44:43.669Z,1007.8
2017-09-04T01:54:58.346Z,1007.8
2017-09-04T02:05:13.824Z,1007.7
2017-09-04T02:15:28.171Z,1007.7
2017-09-04T02:25:41.924Z,1007.6
2017-09-04T02:35:56.583Z,1007.6
2017-09-04T02:46:11.691Z,1007.6
2017-09-04T02:56:26.746Z,1007.5
2017-09-04T03:06:41.784Z,1007.5
2017-09-04T03:16:55.440Z,1007.5
2017-09-04T03:27:10.922Z,1007.6
2017-09-04T03:37:25.289Z,1007.6
2017-09-04T03:47:40.187Z,1007.6
2017-09-04T03:57:55.763Z,1007.7
2017-09-04T04:08:10.384Z,1007.7
2017-09-04T04:18:24.197Z,1007.7
2017-09-04T04:28:38.437Z,1007.7
2017-09-04T04:38:53.158Z,1007.6
2017-09-04T04:49:08.728Z,1007.7
2017-09-04T04:59:23.458Z,1007.7
2017-09-04T05:09:37.802Z,1007.8
2017-09-04T05:19:53.228Z,1007.8
2017-09-04T05:30:07.253Z,1007.9
2017-09-04T05:40:21.975Z,1007.8
2017-09-04T05:50:36.413Z,1008
2017-09-04T06:00:51.372Z,1008.1
2017-09-04T06:11:05.165Z,1008.1
2017-09-04T06:21:19.673Z,1008.1
2017-09-04T06:31:35.087Z,1008.2
2017-09-04T06:41:50.592Z,1008.3
2017-09-04T06:52:04.840Z,1008.4
2017-09-04T07:02:19.272Z,1008.5
2017-09-04T07:12:33.053Z,1008.5
2017-09-04T07:22:47.959Z,1008.7
2017-09-04T07:33:01.767Z,1008.9
2017-09-04T07:43:15.922Z,1008.9
2017-09-04T07:53:30.201Z,1009.1
2017-09-04T08:03:44.048Z,1009
2017-09-04T08:13:59.257Z,1009
2017-09-04T08:24:14.155Z,1009
2017-09-04T08:34:29.876Z,1009.1
2017-09-04T08:44:44.083Z,1009.2
2017-09-04T08:54:58.106Z,1009.2
2017-09-04T09:05:12.825Z,1009.3
2017-09-04T09:15:28.410Z,1009.2
2017-09-04T09:25:44.129Z,1009.1
2017-09-04T09:35:58.280Z,1009.2
2017-09-04T09:46:13.047Z,1009.3
2017-09-04T09:56:27.524Z,1009.2
2017-09-04T10:06:42.876Z,1009.2
2017-09-04T10:16:56.962Z,1009.2
2017-09-04T10:27:10.984Z,1009.4
2017-09-04T10:37:25.323Z,1009.4
2017-09-04T10:47:40.323Z,1009.3
2017-09-04T10:57:55.664Z,1009.3
2017-09-04T11:08:09.713Z,1009.3
2017-09-04T11:18:25.307Z,1009.5
2017-09-04T11:28:39.281Z,1009.3
2017-09-04T11:38:54.635Z,1009.1
2017-09-04T11:49:09.488Z,1009.3
2017-09-04T11:59:23.484Z,1009.3
2017-09-04T12:09:39.125Z,1009.3
2017-09-04T12:19:53.468Z,1009.5
2017-09-04T12:30:07.729Z,1009.2
2017-09-04T12:40:23.362Z,1009.1
2017-09-04T12:50:37.522Z,1009.3
2017-09-04T13:00:52.235Z,1009.6
2017-09-04T13:11:07.021Z,1009.1
2017-09-04T13:21:22.103Z,1009.2
2017-09-04T13:31:37.341Z,1009.3
2017-09-04T13:41:51.488Z,1009.3
2017-09-04T13:52:06.349Z,1009.2
2017-09-04T14:02:21.680Z,1009.2
2017-09-04T14:12:36.696Z,1009.3
2017-09-04T14:22:50.743Z,1009.2
2017-09-04T14:33:05.641Z,1009
2017-09-04T14:43:20.589Z,1009.2
2017-09-04T14:53:35.001Z,1009.3
2017-09-04T15:03:49.652Z,1009.1
2017-09-04T15:14:04.900Z,1008.9
2017-09-04T15:24:19.582Z,1008.8
2017-09-04T15:34:35.158Z,1009
2017-09-04T15:44:50.661Z,1009.2
2017-09-04T15:55:04.760Z,1009.3
2017-09-04T16:05:18.710Z,1009.2
2017-09-04T16:15:34.307Z,1009.2
2017-09-04T16:25:49.849Z,1009.3
2017-09-04T16:36:03.975Z,1009.3
2017-09-04T16:46:18.625Z,1009.2
2017-09-04T16:56:32.565Z,1009.2
2017-09-04T17:06:46.824Z,1009.3
2017-09-04T17:17:02.027Z,1009.2
2017-09-04T17:27:16.527Z,1009.3
2017-09-04T17:37:31.384Z,1009.3
2017-09-04T17:47:45.217Z,1009.4
2017-09-04T17:58:00.495Z,1009.5
2017-09-04T18:08:16.170Z,1009.5
2017-09-04T18:18:31.792Z,1009.5
2017-09-04T18:28:46.571Z,1009.7
2017-09-04T18:39:01.666Z,1009.8
2017-09-04T18:49:15.733Z,1009.9
2017-09-04T18:59:31.464Z,1010.1
2017-09-04T19:09:46.403Z,1010.2
2017-09-04T19:20:00.704Z,1010.2
2017-09-04T19:30:15.404Z,1010.3
2017-09-04T19:40:29.326Z,1010.3
2017-09-04T19:50:44.832Z,1010.4
2017-09-04T20:01:00.077Z,1010.5
2017-09-04T20:11:14.951Z,1010.6
2017-09-04T20:21:30.573Z,1010.6
2017-09-04T20:31:45.922Z,1010.7
2017-09-04T20:42:00.408Z,1010.8
2017-09-04T20:52:15.464Z,1010.9
2017-09-04T21:02:31.274Z,1010.8
2017-09-04T21:12:44.870Z,1010.9
2017-09-04T21:23:00.346Z,1011
2017-09-04T21:33:15.071Z,1011
2017-09-04T21:43:29.396Z,1011.1
2017-09-04T21:53:43.931Z,1011.1
2017-09-04T22:03:58.972Z,1011.1
2017-09-04T22:14:12.724Z,1011.2
2017-09-04T22:24:27.665Z,1011.2
2017-09-04T22:34:42.041Z,1011.2
2017-09-04T22:44:56.996Z,1011
2017-09-04T22:55:11.715Z,1011
2017-09-04T23:05:26.222Z,1011
2017-09-04T23:15:41.842Z,1010.9
2017-09-04T23:25:55.791Z,1010.9
2017-09-04T23:36:09.550Z,1010.9
2017-09-04T23:46:23.617Z,1010.9
2017-09-04T23:56:38.711Z,1010.9
